Latest Weather Observations for Albany Airport

IDW60801

Issued at 3:43 am WST Monday 27 September 2021 (issued every 10 minutes, with the page automatically refreshed every 10 minutes)

About weather observations | Map of weather stations | Latest weather observations for WA | Other Formats
Station Details ID: 009999 Name: ALBANY AIRPORT Lat: -34.94 Lon: 117.82 Height: 68.4 m
Data from the previous 72 hours. | See also: Recent months at Albany Airport
Date/Time
WST
Temp
°C
App
Temp
°C
Dew
Point
°C
Rel
Hum
%
Delta-T
°C
Wind Press
QNH
hPa
Press
MSL
hPa
Rain since
9am
mm
Dir  Spd
km/h
Gust
km/h
Spd
kts
Gust
kts
27/03:40am 13.3 12.6 13.1 99 0.1 SW 9 13 5 7 1009.5 1009.5 16.8
27/03:30am 13.2 12.8 13.0 99 0.1 SSW 7 7 4 4 1009.4 1009.4 16.6
27/03:27am 13.2 12.8 13.0 99 0.1 SSW 7 7 4 4 1009.4 1009.4 16.6
27/03:24am 13.2 12.8 13.0 99 0.1 SSW 7 7 4 4 1009.4 1009.4 16.6
27/03:08am 13.2 13.0 13.0 99 0.1 SE 6 7 3 4 1009.2 1009.2 16.6
27/03:00am 13.2 13.0 13.0 99 0.1 SE 6 9 3 5 1009.1 1009.1 16.6
27/02:55am 13.3 12.9 13.1 99 0.1 SE 7 9 4 5 1009.1 1009.1 16.6
27/02:31am 13.3 12.2 13.1 99 0.1 SSE 11 17 6 9 1009.1 1009.1 15.8
27/02:30am 13.3 12.2 13.1 99 0.1 SSE 11 17 6 9 1009.1 1009.1 15.8
27/02:00am 13.2 11.7 13.0 99 0.1 SW 13 20 7 11 1008.9 1008.9 13.6
27/01:56am 13.3 12.2 13.1 99 0.1 WSW 11 15 6 8 1008.9 1008.9 12.2
27/01:54am 13.3 12.6 13.1 99 0.1 WSW 9 13 5 7 1008.8 1008.8 12.0
27/01:53am 13.3 12.6 13.1 99 0.1 WSW 9 11 5 6 1008.8 1008.8 12.0
27/01:38am 13.3 12.2 13.1 99 0.1 WNW 11 11 6 6 1008.6 1008.6 12.0
27/01:30am 13.3 12.6 13.1 99 0.1 WNW 9 11 5 6 1008.6 1008.6 11.8
27/01:00am 13.2 12.4 13.0 99 0.1 W 9 11 5 6 1008.5 1008.5 11.8
27/12:30am 13.2 12.4 13.0 99 0.1 W 9 11 5 6 1008.5 1008.5 11.8
27/12:00am 13.2 12.1 13.0 99 0.1 WNW 11 13 6 7 1008.6 1008.6 11.8
 
Date/Time
WST
Temp
°C
App
Temp
°C
Dew
Point
°C
Rel
Hum
%
Delta-T
°C
Wind Press
QNH
hPa
Press
MSL
hPa
Rain since
9am
mm
Dir  Spd
km/h
Gust
km/h
Spd
kts
Gust
kts
26/11:30pm 13.2 12.1 13.0 99 0.1 WNW 11 15 6 8 1008.5 1008.5 11.6
26/11:25pm 13.2 11.7 13.0 99 0.1 WNW 13 15 7 8 1008.5 1008.5 11.6
26/11:00pm 13.2 11.6 12.9 98 0.2 W 13 17 7 9 1008.5 1008.5 11.2
26/10:35pm 13.2 11.2 12.7 97 0.3 W 15 19 8 10 1008.5 1008.5 4.4
26/10:30pm 13.3 11.3 12.7 96 0.3 W 15 19 8 10 1008.5 1008.5 3.8
26/10:00pm 13.0 11.2 12.2 95 0.4 WNW 13 13 7 7 1008.4 1008.4 3.8
26/09:30pm 12.7 12.1 12.2 97 0.3 WNW 7 9 4 5 1008.3 1008.3 3.6
26/09:00pm 12.7 11.3 12.2 97 0.3 NNW 11 15 6 8 1008.1 1008.0 3.6
26/08:30pm 13.1 12.3 12.8 98 0.2 SW 9 11 5 6 1008.1 1008.0 3.6
26/08:00pm 13.3 11.3 12.8 97 0.3 SW 15 19 8 10 1007.8 1007.8 3.4
26/07:40pm 13.5 12.4 13.0 97 0.3 SW 11 17 6 9 1007.5 1007.5 3.2
26/07:30pm 13.5 11.6 12.9 96 0.3 WSW 15 20 8 11 1007.2 1007.2 2.8
26/07:05pm 14.0 11.8 13.2 95 0.4 WSW 17 24 9 13 1007.2 1007.2 0.8
26/07:00pm 14.1 11.3 13.1 94 0.6 WSW 20 26 11 14 1007.2 1007.2 0.4
26/06:59pm 14.2 11.6 13.2 94 0.6 WSW 19 26 10 14 1007.2 1007.2 0.4
26/06:55pm 14.4 12.2 13.3 93 0.6 WSW 17 26 9 14 1007.1 1007.1 0.2
26/06:32pm 15.0 13.7 13.7 92 0.7 WSW 13 20 7 11 1006.5 1006.5 0.2
26/06:30pm 15.1 13.8 13.8 92 0.7 WSW 13 15 7 8 1006.5 1006.5 0.2
26/06:17pm 15.5 14.5 13.5 88 1.1 WSW 11 17 6 9 1006.3 1006.3 0.2
26/06:00pm 15.7 14.6 13.0 84 1.5 WSW 11 15 6 8 1006.1 1006.1 0.2
26/05:30pm 16.1 14.5 12.7 80 1.9 SW 13 19 7 10 1005.7 1005.7 0.2
26/05:00pm 16.4 13.9 12.4 77 2.2 SW 17 22 9 12 1005.4 1005.4 0.2
26/04:30pm 16.8 14.6 12.1 74 2.6 SW 15 20 8 11 1004.9 1004.9 0.2
26/04:00pm 17.3 14.9 12.6 74 2.6 SW 17 24 9 13 1004.6 1004.6 0.2
26/03:30pm 17.7 14.8 12.2 70 3.0 SSW 19 26 10 14 1004.3 1004.3 0.2
26/03:00pm 18.5 15.8 11.8 65 3.7 SW 17 22 9 12 1004.2 1004.2 0.2
26/02:30pm 18.6 15.6 12.4 67 3.5 SSW 20 24 11 13 1003.9 1003.9 0.2
26/02:00pm 19.4 17.7 11.2 59 4.5 WSW 11 19 6 10 1003.7 1003.7 0.2
26/01:30pm 19.5 17.8 11.3 59 4.5 W 11 17 6 9 1003.8 1003.8 0.2
26/01:00pm 18.5 16.7 10.8 61 4.2 W 11 17 6 9 1004.0 1004.0 0.2
26/12:30pm 18.5 16.9 11.6 64 3.8 NNW 11 19 6 10 1004.1 1004.1 0.2
26/12:00pm 18.1 16.3 12.1 68 3.3 NNW 13 20 7 11 1004.1 1004.1 0.0
26/11:30am 17.1 15.3 10.7 66 3.4 NNE 11 15 6 8 1004.3 1004.3 0.0
26/11:00am 17.3 16.0 11.3 68 3.3 ENE 9 15 5 8 1004.4 1004.4 0.0
26/10:30am 16.8 15.5 11.1 69 3.1 NE 9 15 5 8 1004.8 1004.8 0.0
26/10:00am 17.6 15.1 11.2 66 3.5 NE 15 19 8 10 1005.2 1005.2 0.0
26/09:30am 17.4 15.1 11.7 69 3.1 ENE 15 19 8 10 1005.2 1005.2 0.0
26/09:00am 17.0 14.0 12.1 73 2.7 ENE 19 24 10 13 1005.7 1005.7 0.8
26/08:30am 16.0 13.2 12.6 80 1.9 ENE 19 24 10 13 1005.9 1005.9 0.8
26/08:00am 15.2 12.7 12.3 83 1.6 ENE 17 24 9 13 1005.9 1005.9 0.8
26/07:30am 14.4 12.2 12.1 86 1.2 ENE 15 19 8 10 1005.9 1005.9 0.8
26/07:00am 13.4 12.0 12.3 93 0.6 ENE 11 15 6 8 1006.2 1006.2 0.8
26/06:30am 12.3 10.7 11.4 94 0.5 ENE 11 13 6 7 1006.3 1006.3 0.8
26/06:00am 12.6 11.8 11.7 94 0.5 E 7 9 4 5 1006.1 1006.1 0.8
26/05:30am 13.0 11.9 11.9 93 0.6 E 9 13 5 7 1006.4 1006.4 0.6
26/05:00am 13.4 11.2 12.0 91 0.8 ENE 15 19 8 10 1006.7 1006.7 0.4
26/04:30am 13.2 11.3 11.9 92 0.7 E 13 15 7 8 1006.5 1006.5 0.4
26/04:00am 13.3 11.4 11.9 91 0.8 E 13 17 7 9 1006.5 1006.5 0.4
26/03:30am 13.7 12.0 12.3 91 0.8 E 13 17 7 9 1006.8 1006.8 0.4
26/03:00am 13.9 12.1 12.1 89 1.0 E 13 20 7 11 1007.2 1007.2 0.4
26/02:30am 14.3 11.4 12.3 88 1.1 E 19 24 10 13 1007.6 1007.6 0.2
26/02:00am 14.0 11.1 12.4 90 0.9 E 19 24 10 13 1008.2 1008.1 0.2
26/01:30am 13.8 11.3 12.4 91 0.8 ENE 17 24 9 13 1008.9 1008.9 0.2
26/01:00am 13.8 10.8 12.0 89 1.0 ENE 19 24 10 13 1009.3 1009.3 0.2
26/12:30am 13.7 10.5 11.9 89 1.0 E 20 30 11 16 1009.4 1009.4 0.2
26/12:00am 13.4 10.3 11.6 89 1.0 E 19 26 10 14 1009.7 1009.7 0.2
 
Date/Time
WST
Temp
°C
App
Temp
°C
Dew
Point
°C
Rel
Hum
%
Delta-T
°C
Wind Press
QNH
hPa
Press
MSL
hPa
Rain since
9am
mm
Dir  Spd
km/h
Gust
km/h
Spd
kts
Gust
kts
25/11:30pm 13.3 9.9 11.4 88 1.0 E 20 28 11 15 1010.3 1010.3 0.2
25/11:00pm 13.5 10.1 11.4 87 1.1 E 20 28 11 15 1010.8 1010.8 0.2
25/10:30pm 13.3 9.8 11.0 86 1.2 E 20 26 11 14 1011.3 1011.3 0.2
25/10:00pm 13.5 10.0 11.0 85 1.3 E 20 30 11 16 1012.0 1012.0 0.2
25/09:30pm 13.2 9.9 10.9 86 1.2 E 19 30 10 16 1012.3 1012.3 0.2
25/09:00pm 13.4 9.9 10.9 85 1.3 ENE 20 28 11 15 1012.7 1012.7 0.2
25/08:30pm 13.1 10.5 10.8 86 1.2 E 15 20 8 11 1013.0 1013.0 0.2
25/08:00pm 12.9 9.9 10.8 87 1.1 ENE 17 24 9 13 1013.0 1013.0 0.2
25/07:30pm 12.5 10.3 10.7 89 0.9 ENE 13 17 7 9 1013.0 1013.0 0.2
25/07:00pm 12.6 9.4 10.1 85 1.3 ENE 17 24 9 13 1013.0 1013.0 0.2
25/06:30pm 12.9 8.6 9.5 80 1.7 E 22 33 12 18 1012.9 1012.9 0.0
25/06:00pm 13.1 8.1 9.4 78 1.9 E 26 41 14 22 1013.0 1013.0 0.0
25/05:30pm 13.2 6.8 9.3 77 2.0 E 33 48 18 26 1013.3 1013.3 0.0
25/05:00pm 13.0 8.4 9.8 81 1.6 E 24 35 13 19 1013.7 1013.7 0.0
25/04:30pm 13.0 7.4 10.0 82 1.5 ENE 30 39 16 21 1013.8 1013.8 0.0
25/04:06pm 13.4 5.9 9.5 77 2.0 E 39 57 21 31 1012.5 1012.5 0.0
25/04:00pm 13.7 6.9 9.2 74 2.3 E 35 50 19 27 1012.6 1012.6 0.0
25/03:30pm 14.1 7.7 8.7 70 2.7 E 32 43 17 23 1013.4 1013.4 0.0
25/03:13pm 14.5 8.5 8.7 68 2.9 E 30 48 16 26 1013.7 1013.7 0.0
25/03:00pm 14.5 8.3 9.3 71 2.7 ENE 32 43 17 23 1014.2 1014.2 0.0
25/02:41pm 14.8 8.6 9.4 70 2.8 ENE 32 50 17 27 1014.5 1014.5 0.0
25/02:30pm 15.3 9.0 8.8 65 3.3 ENE 32 41 17 22 1014.7 1014.7 0.0
25/02:00pm 15.4 9.0 8.6 64 3.5 E 32 46 17 25 1015.0 1015.0 0.0
25/01:30pm 16.3 10.0 9.0 62 3.8 E 32 46 17 25 1015.8 1015.8 0.0
25/01:00pm 15.3 9.2 8.1 62 3.6 E 30 39 16 21 1016.1 1016.1 0.0
25/12:30pm 16.0 10.0 8.5 61 3.8 ENE 30 35 16 19 1017.2 1017.2 0.0
25/12:00pm 15.8 9.7 8.3 61 3.8 ENE 30 39 16 21 1017.8 1017.8 0.0
25/11:30am 15.5 9.5 8.7 64 3.5 ENE 30 43 16 23 1018.1 1018.1 0.0
25/11:00am 15.6 9.4 9.3 66 3.3 ENE 32 43 17 23 1018.5 1018.5 0.0
25/10:30am 14.5 8.5 8.5 67 3.0 E 30 39 16 21 1019.0 1019.0 0.0
25/10:00am 15.2 9.6 8.7 65 3.3 ENE 28 35 15 19 1019.3 1019.3 0.0
25/09:30am 14.3 9.5 8.7 69 2.8 E 24 32 13 17 1019.9 1019.9 0.0
25/09:00am 13.5 10.0 8.8 73 2.4 ENE 17 24 9 13 1020.4 1020.5 0.0
25/08:30am 12.3 9.0 8.0 75 2.1 ENE 15 19 8 10 1020.7 1020.8 0.0
25/08:00am 11.2 7.2 8.2 82 1.5 NNE 19 24 10 13 1020.9 1021.0 0.0
25/07:30am 11.8 8.6 8.5 80 1.6 ENE 15 24 8 13 1020.9 1021.0 0.0
25/07:00am 11.0 8.0 7.5 79 1.7 ENE 13 17 7 9 1021.0 1021.1 0.0
25/06:30am 9.5 6.2 6.6 82 1.4 ESE 13 17 7 9 1020.8 1020.9 0.0
25/06:00am 8.9 5.0 5.5 79 1.5 ESE 15 19 8 10 1020.8 1020.9 0.0
25/05:30am 8.8 5.2 5.0 77 1.7 E 13 19 7 10 1021.2 1021.3 0.0
25/05:00am 8.4 5.2 5.3 81 1.4 ENE 11 13 6 7 1021.3 1021.4 0.0
25/04:30am 9.4 5.9 5.4 76 1.8 E 13 20 7 11 1021.4 1021.5 0.0
25/04:00am 9.9 5.3 5.5 74 2.0 E 19 22 10 12 1021.6 1021.7 0.0
25/03:30am 9.8 6.3 5.4 74 2.0 E 13 15 7 8 1021.8 1021.9 0.0
25/03:00am 10.4 7.4 5.8 73 2.1 E 11 13 6 7 1021.9 1022.0 0.0
25/02:30am 11.1 7.3 5.6 69 2.5 ENE 15 22 8 12 1022.2 1022.3 0.0
25/02:00am 11.2 7.3 5.5 68 2.6 ESE 15 19 8 10 1022.3 1022.4 0.0
25/01:30am 11.3 6.6 5.0 65 2.9 E 19 26 10 14 1022.9 1022.9 0.0
25/01:00am 11.0 7.4 5.1 67 2.7 ENE 13 20 7 11 1023.2 1023.2 0.0
25/12:30am 10.5 7.9 5.9 73 2.1 ENE 9 11 5 6 1023.5 1023.5 0.0
25/12:00am 10.6 8.0 6.0 73 2.1 E 9 11 5 6 1023.7 1023.7 0.0
 
Date/Time
WST
Temp
°C
App
Temp
°C
Dew
Point
°C
Rel
Hum
%
Delta-T
°C
Wind Press
QNH
hPa
Press
MSL
hPa
Rain since
9am
mm
Dir  Spd
km/h
Gust
km/h
Spd
kts
Gust
kts
24/11:30pm 10.8 8.1 5.8 71 2.3 E 9 13 5 7 1023.9 1023.9 0.0
24/11:00pm 11.0 7.5 5.5 69 2.5 E 13 15 7 8 1024.0 1024.0 0.0
24/10:30pm 11.1 7.3 5.6 69 2.5 ENE 15 19 8 10 1024.4 1024.4 0.0
24/10:00pm 11.2 7.4 5.7 69 2.5 ENE 15 20 8 11 1024.6 1024.6 0.0
24/09:30pm 11.0 7.7 6.2 72 2.3 ENE 13 17 7 9 1024.9 1024.9 0.0
24/09:00pm 11.2 8.7 6.5 73 2.2 ENE 9 15 5 8 1025.1 1025.1 0.0
24/08:30pm 11.5 8.5 6.2 70 2.5 E 11 13 6 7 1025.3 1025.3 0.0
24/08:00pm 11.4 9.0 7.1 75 2.1 ENE 9 13 5 7 1025.2 1025.2 0.0
24/07:30pm 11.4 8.6 7.1 75 2.1 ENE 11 15 6 8 1025.2 1025.2 0.0
24/07:00pm 11.7 9.0 7.2 74 2.2 E 11 15 6 8 1025.2 1025.2 0.0
24/06:30pm 11.8 8.8 7.7 76 2.0 ESE 13 17 7 9 1025.2 1025.2 0.0
24/06:00pm 11.9 8.9 7.8 76 2.0 ESE 13 19 7 10 1025.3 1025.3 0.0
24/05:30pm 12.0 8.3 7.9 76 2.0 E 17 22 9 12 1025.3 1025.3 0.0
24/05:00pm 12.6 8.7 7.1 69 2.6 ESE 17 24 9 13 1025.2 1025.2 0.0
24/04:30pm 13.0 9.1 7.0 67 2.9 ESE 17 22 9 12 1025.0 1025.0 0.0
24/04:00pm 13.1 8.8 6.9 66 3.0 ESE 19 22 10 12 1024.9 1024.9 0.0
24/03:30pm 13.4 9.6 7.6 68 2.9 SE 17 20 9 11 1024.9 1024.9 0.0
24/03:00pm 13.6 9.2 6.7 63 3.3 SE 19 26 10 14 1025.1 1025.1 0.0
24/02:30pm 14.1 9.7 6.7 61 3.6 ESE 19 24 10 13 1025.3 1025.3 0.0
24/02:00pm 14.1 10.0 6.2 59 3.8 SE 17 24 9 13 1025.6 1025.6 0.0
24/01:30pm 14.2 10.2 6.8 61 3.6 SSE 17 24 9 13 1025.9 1025.9 0.0
24/01:00pm 14.6 11.1 7.2 61 3.6 SE 15 20 8 11 1026.2 1026.2 0.0
24/12:30pm 14.1 10.0 6.0 58 3.9 ESE 17 20 9 11 1026.6 1026.6 0.0
24/12:00pm 13.9 10.5 6.0 59 3.7 ESE 13 19 7 10 1026.9 1026.9 0.0
24/11:30am 13.8 10.3 7.1 64 3.3 ESE 15 20 8 11 1027.2 1027.2 0.0
24/11:00am 13.4 9.6 5.8 60 3.6 SE 15 20 8 11 1027.4 1027.4 0.0
24/10:30am 13.4 9.0 6.7 64 3.2 SE 19 24 10 13 1027.5 1027.5 0.0
24/10:00am 13.2 9.5 6.1 62 3.4 SSE 15 20 8 11 1027.7 1027.7 0.0
24/09:30am 13.1 10.4 5.5 60 3.6 SSE 9 13 5 7 1027.8 1027.8 0.0
24/09:00am 12.9 10.4 6.5 65 3.0 SSE 9 13 5 7 1027.9 1027.9 1.6
24/08:30am 12.5 9.5 6.1 65 3.0 S 11 15 6 8 1027.9 1027.9 1.6
24/08:00am 12.3 9.4 6.6 68 2.7 SSE 11 15 6 8 1027.8 1027.8 1.6
24/07:30am 12.0 9.4 6.3 68 2.7 SE 9 15 5 8 1027.6 1027.6 1.6
24/07:00am 11.3 10.0 7.6 78 1.8 S 4 6 2 3 1027.3 1027.3 1.6
24/06:30am 11.0 9.8 8.1 82 1.4 SSE 4 7 2 4 1027.1 1027.1 1.6
24/06:00am 10.9 8.9 7.0 77 1.8 S 7 9 4 5 1027.0 1027.0 1.6
24/05:30am 11.1 9.0 6.5 73 2.2 SSE 7 7 4 4 1026.9 1026.9 1.6
24/05:00am 10.9 9.0 6.5 74 2.1 SSW 6 7 3 4 1026.7 1026.7 1.6
24/04:30am 11.1 9.0 6.0 71 2.4 SSE 6 7 3 4 1026.7 1026.7 1.6
24/04:00am 11.4 8.6 5.1 65 2.9 SE 9 13 5 7 1026.6 1026.6 1.6

Other formats

Comma delimited format used in spreadsheet applications
http://www.bom.gov.au/fwo/IDW60801/IDW60801.94802.axf

JavaScript Object Notation format (JSON) in row-major order
http://www.bom.gov.au/fwo/IDW60801/IDW60801.94802.json

Data quality

Most of these data are generated automatically and are frequently updated. Quality checks on data are not normally performed. It is possible for incorrect values to appear. Refer to information at About Latest Weather Observations and please check the disclaimer before using these data.